Galax, Virginia
Current Conditions -  °F | °C
As of 2:55 AM on Thursday 23 Oct 2014 (Local Time) from KHLX Reporting Station
Overcast Overcast  
Wind Chill: 37°   Ceiling: 1700
Heat Index: 43°   Visibility: 10mi
Dew Point: 37°   Wind: 12mph
Humidity: 81%   Direction: 300°WNW
Pressure: 30.09"   Gusts: 16mph
Location:  36.67°N, 80.93°W
Report Text: KHLX 230655Z AUTO 30010G14KT 10SM OVC017 06/03 A3009 RMK AO2 T00600030
Loading
Personal Weather Stations






























Interactive Weather Map
Tropical Storm Tracking
New forecast layout! Learn more

10-Day Weather Forecast

Advertisements
Track Severe Weather on mobile